Terminal Aerodrome Forecast
Issued by NWS Indianapolis, IN

Home | Current Version | Previous Version | Text Only | Print | Product List | Glossary On
Versions: 1 2 3 4 5 6 7 8 9 10 11 12 13 14 15 16 17 18 19 20 21 22 23 24 25 26 27 28 29 30 31 32
000
FTUS43 KIND 251400 AAB
TAFIND
TAF AMD
KIND 251428Z 2514/2618 25012KT P6SM OVC025
     FM251600 23011KT P6SM BKN030
     FM251900 21010G20KT P6SM SCT030
     FM252300 20008KT P6SM SCT250=

USA.gov is the U.S. government's official web portal to all federal, state and local government web resources and services.